Time;durP1;ratioP1;P1;durP2;ratioP2;P2;SDS_P1;SDS_P2;PMS_P1;PMS_P2;Temp;Humidity;BMP_temperature;BMP_pressure;BME280_temperature;BME280_humidity;BME280_pressure;Samples;Min_cycle;Max_cycle;Signal;HPM_P1;HPM_P2
2023/12/18 00:00:15;;;;;;;19.58;11.73;;;;;;;8.28;75.26;101353.28;4973275;28;20106;-75
2023/12/18 00:02:41;;;;;;;22.73;12.50;;;;;;;8.27;75.44;101351.56;4976058;28;20061;-74
2023/12/18 00:05:09;;;;;;;30.55;13.35;;;;;;;8.28;75.40;101348.03;4991917;28;20046;-76
2023/12/18 00:07:35;;;;;;;23.13;13.25;;;;;;;8.25;74.54;101343.72;4992489;28;20051;-75
2023/12/18 00:10:02;;;;;;;23.27;13.93;;;;;;;8.24;74.71;101346.38;4992549;28;20108;-73
2023/12/18 00:12:29;;;;;;;25.13;13.27;;;;;;;8.22;74.60;101349.00;4992774;28;20476;-75
2023/12/18 00:14:55;;;;;;;22.00;12.00;;;;;;;8.20;74.76;101351.69;4973838;28;20078;-75
2023/12/18 00:17:22;;;;;;;25.88;12.82;;;;;;;8.18;74.99;101347.34;4972806;28;20128;-74
2023/12/18 00:19:48;;;;;;;21.70;13.43;;;;;;;8.17;74.73;101348.25;4972903;28;20082;-75
2023/12/18 00:22:15;;;;;;;24.27;13.65;;;;;;;8.15;74.64;101343.03;4972819;28;20057;-74
2023/12/18 00:24:42;;;;;;;28.70;14.88;;;;;;;8.13;74.57;101344.84;4986724;28;20059;-76
2023/12/18 00:27:08;;;;;;;23.17;14.25;;;;;;;8.10;74.67;101334.41;4992133;28;20051;-75
2023/12/18 00:29:35;;;;;;;28.00;14.70;;;;;;;8.10;74.73;101331.78;4992412;28;20054;-72
2023/12/18 00:32:01;;;;;;;25.45;14.95;;;;;;;8.07;74.62;101326.59;4992030;28;20467;-74
2023/12/18 00:34:28;;;;;;;24.55;15.40;;;;;;;8.05;74.84;101328.41;4982928;28;20432;-73
2023/12/18 00:36:54;;;;;;;25.23;15.38;;;;;;;8.04;75.06;101334.56;4972817;28;20137;-75
2023/12/18 00:39:21;;;;;;;29.05;15.25;;;;;;;8.04;75.00;101340.63;4972905;28;20054;-75
2023/12/18 00:41:47;;;;;;;28.60;14.65;;;;;;;8.04;74.99;101338.03;4972583;28;20057;-74
2023/12/18 00:44:14;;;;;;;27.98;15.98;;;;;;;8.01;74.88;101331.97;4977301;28;20049;-72
2023/12/18 00:46:40;;;;;;;32.15;16.25;;;;;;;8.01;74.81;101334.59;4991144;28;20050;-74
2023/12/18 00:49:07;;;;;;;34.45;15.48;;;;;;;8.00;74.97;101338.97;4991902;28;20088;-75
2023/12/18 00:51:34;;;;;;;28.30;16.08;;;;;;;8.01;74.80;101339.84;4991853;28;20487;-70
2023/12/18 00:54:00;;;;;;;28.15;16.70;;;;;;;7.99;75.05;101334.63;4991468;28;20398;-77
2023/12/18 00:56:27;;;;;;;29.63;16.08;;;;;;;7.98;75.12;101326.78;4983901;28;20056;-76
2023/12/18 00:58:54;;;;;;;26.92;17.35;;;;;;;7.95;75.01;101318.13;4992013;28;20050;-74
2023/12/18 01:01:20;;;;;;;32.58;18.35;;;;;;;7.93;75.01;101321.66;4991672;28;20080;-75
2023/12/18 01:03:47;;;;;;;32.10;18.65;;;;;;;7.91;74.84;101316.44;4991764;28;20746;-75
2023/12/18 01:06:14;;;;;;;35.67;18.30;;;;;;;7.89;75.05;101323.47;4976572;28;20385;-72
2023/12/18 01:08:40;;;;;;;34.35;18.75;;;;;;;7.86;75.24;101317.44;4972490;28;20051;-74
2023/12/18 01:11:07;;;;;;;37.75;19.00;;;;;;;7.82;75.37;101319.25;4972336;28;20090;-75
2023/12/18 01:13:33;;;;;;;38.42;18.00;;;;;;;7.80;75.08;101313.16;4972271;28;20078;-77
2023/12/18 01:16:00;;;;;;;38.38;19.55;;;;;;;7.77;75.35;101319.34;4972337;28;20110;-74
2023/12/18 01:18:26;;;;;;;37.58;19.13;;;;;;;7.76;75.59;101311.50;4972146;28;20093;-74
2023/12/18 01:20:53;;;;;;;32.17;18.95;;;;;;;7.75;75.57;101310.66;4972139;28;20484;-74
2023/12/18 01:23:20;;;;;;;35.42;18.90;;;;;;;7.75;75.74;101326.38;4972278;28;20063;-70
2023/12/18 01:25:46;;;;;;;38.45;18.90;;;;;;;7.76;76.11;101322.88;4977409;28;20054;-73
2023/12/18 01:28:13;;;;;;;37.90;19.48;;;;;;;7.75;76.21;101322.88;4990939;28;20543;-76
2023/12/18 01:30:39;;;;;;;41.72;21.25;;;;;;;7.75;76.20;101320.28;4991421;28;20138;-74
2023/12/18 01:33:06;;;;;;;42.08;19.70;;;;;;;7.74;76.24;101314.16;4991499;28;20767;-76
2023/12/18 01:35:33;;;;;;;45.92;20.85;;;;;;;7.75;76.23;101320.28;4973825;28;20042;-76
2023/12/18 01:38:00;;;;;;;41.00;20.88;;;;;;;7.75;76.54;101309.78;4972419;28;20054;-75
2023/12/18 01:40:27;;;;;;;38.00;19.33;;;;;;;7.75;76.67;101305.41;4972160;28;20051;-72
2023/12/18 01:42:54;;;;;;;39.72;19.40;;;;;;;7.76;76.50;101306.25;4976047;28;20065;-76
2023/12/18 01:45:20;;;;;;;38.72;19.05;;;;;;;7.76;76.76;101299.28;4990712;28;20050;-76
2023/12/18 01:47:48;;;;;;;34.72;18.52;;;;;;;7.78;76.79;101305.34;4991605;28;20062;-74
2023/12/18 01:50:15;;;;;;;40.53;19.83;;;;;;;7.79;76.59;101314.94;4991636;28;20065;-72
2023/12/18 01:52:41;;;;;;;36.88;19.85;;;;;;;7.80;76.91;101315.78;4991140;28;20404;-76
2023/12/18 01:55:09;;;;;;;39.67;19.33;;;;;;;7.82;76.86;101321.88;4988951;28;20085;-72
2023/12/18 01:57:36;;;;;;;42.33;20.23;;;;;;;7.83;76.55;101320.97;4991746;28;20499;-75
2023/12/18 02:00:05;;;;;;;39.15;19.60;;;;;;;7.84;76.77;101314.84;4995097;28;20046;-74
2023/12/18 02:02:32;;;;;;;41.05;20.55;;;;;;;7.85;76.51;101315.72;4995126;28;20141;-76
2023/12/18 02:04:59;;;;;;;43.97;20.35;;;;;;;7.86;76.81;101313.06;4981504;28;20054;-74
2023/12/18 02:07:27;;;;;;;37.67;18.63;;;;;;;7.86;76.79;101317.44;4994645;28;20500;-75
2023/12/18 02:09:54;;;;;;;39.88;19.77;;;;;;;7.87;76.70;101309.53;4994743;28;20109;-74
2023/12/18 02:12:20;;;;;;;40.92;21.08;;;;;;;7.87;77.03;101312.16;4977308;28;20108;-74
2023/12/18 02:14:47;;;;;;;40.17;21.13;;;;;;;7.86;76.89;101299.09;4984559;28;20055;-75
2023/12/18 02:17:14;;;;;;;35.00;19.15;;;;;;;7.87;77.17;101299.06;4975040;28;20051;-73
2023/12/18 02:19:40;;;;;;;31.98;19.27;;;;;;;7.86;76.85;101302.56;4975248;28;20055;-73
2023/12/18 02:22:07;;;;;;;40.03;19.77;;;;;;;7.87;76.70;101308.66;4957860;28;20059;-74
2023/12/18 02:24:33;;;;;;;38.03;20.25;;;;;;;7.87;77.03;101308.66;4976052;28;20054;-73
2023/12/18 02:27:01;;;;;;;38.05;20.15;;;;;;;7.87;76.82;101296.44;4974766;28;20385;-76
2023/12/18 02:29:28;;;;;;;31.58;17.92;;;;;;;7.87;76.94;101304.28;4975138;28;20137;-75
2023/12/18 02:31:54;;;;;;;34.78;18.88;;;;;;;7.88;77.00;101298.16;4975064;28;20047;-72
2023/12/18 02:34:21;;;;;;;36.30;19.80;;;;;;;7.87;77.04;101298.19;4976617;28;20133;-73
2023/12/18 02:36:49;;;;;;;39.63;21.08;;;;;;;7.87;77.08;101293.81;4993733;28;20046;-75
2023/12/18 02:39:15;;;;;;;36.97;19.98;;;;;;;7.86;77.25;101281.59;4992844;28;20084;-75
2023/12/18 02:41:42;;;;;;;33.58;18.45;;;;;;;7.87;77.20;101277.19;4974614;28;20644;-74
2023/12/18 02:44:09;;;;;;;34.28;17.95;;;;;;;7.88;77.46;101289.41;4974658;28;20412;-72
2023/12/18 02:46:35;;;;;;;38.20;19.38;;;;;;;7.87;77.36;101283.31;4974806;28;20050;-72
2023/12/18 02:49:02;;;;;;;33.70;18.27;;;;;;;7.88;77.50;101278.91;4974652;28;20137;-73
2023/12/18 02:51:29;;;;;;;40.80;19.55;;;;;;;7.88;77.46;101282.41;4989843;28;20061;-74
2023/12/18 02:53:56;;;;;;;35.83;19.17;;;;;;;7.87;77.50;101283.31;4993847;28;20570;-74
2023/12/18 02:56:23;;;;;;;40.20;18.98;;;;;;;7.87;77.40;101278.06;4993707;28;20480;-75
2023/12/18 02:58:50;;;;;;;37.20;19.65;;;;;;;7.88;77.07;101276.28;4993712;28;20506;-75
2023/12/18 03:01:16;;;;;;;36.95;20.10;;;;;;;7.86;77.35;101278.09;4982423;28;20547;-74
2023/12/18 03:03:43;;;;;;;36.97;18.77;;;;;;;7.86;77.09;101278.09;4974557;28;20051;-74
2023/12/18 03:06:10;;;;;;;38.33;18.98;;;;;;;7.85;77.33;101284.25;4973994;28;20055;-74
2023/12/18 03:08:36;;;;;;;48.15;20.90;;;;;;;7.83;77.37;101271.16;4974294;28;20085;-74
2023/12/18 03:11:03;;;;;;;37.58;19.15;;;;;;;7.82;77.85;101274.69;4980255;28;20053;-72
2023/12/18 03:13:30;;;;;;;36.05;18.85;;;;;;;7.82;77.47;101261.59;4992983;28;20530;-73
2023/12/18 03:15:57;;;;;;;35.63;19.20;;;;;;;7.81;77.86;101273.81;4993659;28;20113;-75
2023/12/18 03:18:24;;;;;;;40.15;19.33;;;;;;;7.80;77.39;101276.47;4993258;28;20046;-74
2023/12/18 03:20:50;;;;;;;37.75;20.40;;;;;;;7.80;77.40;101273.84;4991124;28;20073;-74
2023/12/18 03:23:17;;;;;;;33.10;19.15;;;;;;;7.80;77.56;101277.34;4974073;28;20120;-72
2023/12/18 03:25:44;;;;;;;35.05;17.85;;;;;;;7.79;77.86;101273.00;4973791;28;20079;-74
2023/12/18 03:28:12;;;;;;;36.53;18.08;;;;;;;7.79;78.03;101267.75;4973951;28;20058;-77
2023/12/18 03:30:38;;;;;;;39.92;18.73;;;;;;;7.79;77.93;101261.66;4973850;28;20105;-75
2023/12/18 03:33:05;;;;;;;38.72;19.35;;;;;;;7.79;77.92;101259.03;4989686;28;20049;-74
2023/12/18 03:35:32;;;;;;;37.75;18.58;;;;;;;7.79;78.28;101245.91;4993116;28;20054;-73
2023/12/18 03:37:59;;;;;;;39.45;18.85;;;;;;;7.79;77.86;101252.03;4993132;28;20096;-73
2023/12/18 03:40:25;;;;;;;36.47;18.75;;;;;;;7.80;78.14;101260.75;4992970;28;20112;-74
2023/12/18 03:42:52;;;;;;;35.67;18.73;;;;;;;7.80;78.09;101250.25;4980340;28;20055;-74
2023/12/18 03:45:18;;;;;;;37.45;18.67;;;;;;;7.79;78.08;101244.16;4973604;28;20059;-76
2023/12/18 03:47:45;;;;;;;39.63;19.15;;;;;;;7.79;78.11;101240.66;4973509;28;20416;-74
2023/12/18 03:50:12;;;;;;;37.97;18.15;;;;;;;7.80;78.06;101237.16;4973552;28;20661;-75
2023/12/18 03:52:39;;;;;;;38.13;19.67;;;;;;;7.77;78.01;101243.31;4980904;28;20058;-75
2023/12/18 03:55:05;;;;;;;39.50;18.73;;;;;;;7.77;78.34;101240.69;4993000;28;20109;-73
2023/12/18 03:57:32;;;;;;;35.35;19.05;;;;;;;7.78;78.14;101259.94;4992754;28;20487;-75
2023/12/18 03:59:59;;;;;;;35.03;19.42;;;;;;;7.78;78.34;101258.16;4990550;28;20857;-76
2023/12/18 04:02:25;;;;;;;40.45;19.77;;;;;;;7.79;78.29;101259.03;4975446;28;20051;-74
2023/12/18 04:04:52;;;;;;;37.10;18.17;;;;;;;7.80;78.56;101264.22;4992557;28;20054;-75
2023/12/18 04:07:19;;;;;;;41.75;19.50;;;;;;;7.80;78.53;101266.84;4992613;28;20058;-75
2023/12/18 04:09:46;;;;;;;38.55;18.83;;;;;;;7.82;78.21;101266.84;4989802;28;20058;-73
2023/12/18 04:12:13;;;;;;;38.45;17.63;;;;;;;7.82;78.75;101269.44;4992472;28;20503;-74
2023/12/18 04:14:42;;;;;;;37.70;19.48;;;;;;;7.83;78.55;101271.16;4987089;28;20055;-74
2023/12/18 04:17:09;;;;;;;34.83;18.52;;;;;;;7.83;78.76;101260.69;4973120;28;20054;-75
2023/12/18 04:19:35;;;;;;;36.85;19.40;;;;;;;7.82;78.46;101259.81;4979131;28;20050;-73
2023/12/18 04:22:02;;;;;;;35.92;18.63;;;;;;;7.84;78.88;101262.41;4992183;28;20053;-74
2023/12/18 04:24:29;;;;;;;38.80;19.13;;;;;;;7.82;78.76;101272.91;4992555;28;20046;-75
2023/12/18 04:26:56;;;;;;;40.20;18.83;;;;;;;7.82;78.97;101264.22;4974940;28;20487;-76
2023/12/18 04:29:22;;;;;;;32.88;17.42;;;;;;;7.82;78.86;101272.91;4984198;28;20105;-74
2023/12/18 04:31:51;;;;;;;34.42;18.52;;;;;;;7.81;78.91;101267.69;4972842;28;20113;-74
2023/12/18 04:34:18;;;;;;;39.80;18.88;;;;;;;7.83;78.59;101260.69;4983750;28;20076;-74
2023/12/18 04:36:45;;;;;;;38.33;19.35;;;;;;;7.82;78.75;101251.94;4992276;28;20046;-75
2023/12/18 04:39:11;;;;;;;33.35;18.02;;;;;;;7.82;78.63;101251.94;4988676;28;20057;-72
2023/12/18 04:41:38;;;;;;;39.28;19.83;;;;;;;7.83;78.74;101252.81;4987214;28;20415;-76
2023/12/18 04:44:05;;;;;;;31.80;19.67;;;;;;;7.82;78.85;101243.25;4992186;28;20148;-75
2023/12/18 04:46:36;;;;;;;40.15;19.58;;;;;;;7.80;79.02;101240.66;4991896;28;20109;-74
2023/12/18 04:49:03;;;;;;;36.38;19.08;;;;;;;7.82;78.99;101235.38;4991832;28;20061;-75
2023/12/18 04:51:30;;;;;;;30.05;18.40;;;;;;;7.80;79.24;101230.16;4974276;28;20054;-75
2023/12/18 04:53:57;;;;;;;32.95;19.30;;;;;;;7.81;78.97;101234.50;4991899;28;20050;-75
2023/12/18 04:56:24;;;;;;;39.75;20.38;;;;;;;7.80;78.88;101224.03;4991600;28;20109;-73
2023/12/18 04:58:51;;;;;;;36.60;20.35;;;;;;;7.79;79.18;101235.44;4992042;28;20082;-76
2023/12/18 05:01:18;;;;;;;38.13;20.63;;;;;;;7.78;78.95;101229.31;4977608;28;20109;-72
2023/12/18 05:03:44;;;;;;;41.58;21.73;;;;;;;7.78;78.98;101223.22;4972234;28;20061;-73
2023/12/18 05:06:23;;;;;;;39.25;19.77;;;;;;;7.73;78.85;101220.69;4971676;28;20065;-73
2023/12/18 05:08:50;;;;;;;40.15;19.40;;;;;;;7.77;79.50;101229.34;4971916;28;20385;-72
2023/12/18 05:11:18;;;;;;;43.75;20.25;;;;;;;7.76;79.16;101231.13;4982956;28;20069;-74
2023/12/18 05:13:45;;;;;;;40.72;21.20;;;;;;;7.77;79.39;101229.34;4991664;28;20116;-69
2023/12/18 05:16:13;;;;;;;37.38;20.58;;;;;;;7.77;79.19;101218.84;4991036;28;20066;-74
2023/12/18 05:18:40;;;;;;;36.80;20.83;;;;;;;7.76;79.24;101218.00;4991193;28;20066;-73
2023/12/18 05:21:07;;;;;;;36.03;20.65;;;;;;;7.77;79.19;101234.59;4982844;28;20054;-74
2023/12/18 05:23:33;;;;;;;38.38;20.85;;;;;;;7.76;79.31;101218.00;4971843;28;20407;-70
2023/12/18 05:26:00;;;;;;;34.53;20.45;;;;;;;7.76;79.45;101223.25;4971887;28;20415;-69
2023/12/18 05:28:27;;;;;;;40.38;20.95;;;;;;;7.75;79.25;101218.03;4971548;28;20093;-73
2023/12/18 05:30:54;;;;;;;39.25;21.05;;;;;;;7.74;79.42;101224.19;4974996;28;20054;-73
2023/12/18 05:33:21;;;;;;;38.20;21.17;;;;;;;7.74;79.63;101229.44;4992677;28;20070;-75
2023/12/18 05:35:48;;;;;;;36.20;20.95;;;;;;;7.75;79.34;101231.16;4994896;28;20085;-73
2023/12/18 05:38:14;;;;;;;44.70;19.98;;;;;;;7.74;79.51;101227.66;4994660;28;20057;-73
2023/12/18 05:40:41;;;;;;;39.03;20.33;;;;;;;7.75;79.65;101232.03;4994632;28;20116;-73
2023/12/18 05:43:07;;;;;;;35.40;20.25;;;;;;;7.75;79.71;101242.50;4975998;28;20109;-75
2023/12/18 05:45:34;;;;;;;34.78;20.85;;;;;;;7.77;79.51;101231.97;4975454;28;20424;-73
2023/12/18 05:48:01;;;;;;;37.20;20.65;;;;;;;7.76;80.10;101225.00;4975239;28;20050;-72
2023/12/18 05:50:27;;;;;;;36.42;21.30;;;;;;;7.78;79.97;101241.56;4975088;28;20055;-70
2023/12/18 05:52:54;;;;;;;37.95;21.38;;;;;;;7.79;79.63;101230.19;4975808;28;20055;-72
2023/12/18 05:55:21;;;;;;;35.05;20.77;;;;;;;7.80;80.01;101231.91;4975114;28;20047;-70
2023/12/18 05:57:48;;;;;;;41.47;21.98;;;;;;;7.80;79.63;101234.53;4958036;28;20108;-72
2023/12/18 06:00:15;;;;;;;34.95;20.15;;;;;;;7.80;80.09;101226.66;4975151;28;20050;-73
2023/12/18 06:02:41;;;;;;;37.20;20.80;;;;;;;7.81;79.76;101231.00;4983667;28;20113;-71
2023/12/18 06:05:09;;;;;;;34.63;19.25;;;;;;;7.81;80.21;101229.25;4994375;28;20610;-73
2023/12/18 06:07:35;;;;;;;45.78;21.98;;;;;;;7.82;79.98;101211.78;5013695;22;20588;-81
2023/12/18 06:10:08;;;;;;;37.88;19.85;;;;;;;7.83;79.95;101208.25;4995182;28;20050;-80
2023/12/18 06:12:36;;;;;;;40.65;20.85;;;;;;;7.82;79.96;101217.88;4995115;28;20090;-80
2023/12/18 06:15:04;;;;;;;41.45;21.52;;;;;;;7.82;79.68;101215.25;4977818;28;20053;-79
2023/12/18 06:17:31;;;;;;;39.35;21.65;;;;;;;7.82;79.83;101222.25;4981707;28;20078;-80
2023/12/18 06:19:57;;;;;;;44.67;21.20;;;;;;;7.82;79.64;101212.63;5013544;28;20085;-80
2023/12/18 06:22:24;;;;;;;37.38;20.95;;;;;;;7.82;80.06;101219.66;4996822;28;20061;-80
2023/12/18 06:24:51;;;;;;;35.30;21.08;;;;;;;7.81;79.89;101223.13;5014236;28;20133;-80
2023/12/18 06:27:17;;;;;;;39.92;22.73;;;;;;;7.81;79.81;101217.91;5014114;28;20050;-80
2023/12/18 06:29:44;;;;;;;33.95;21.13;;;;;;;7.81;80.10;101217.91;5014103;28;20121;-81
2023/12/18 06:32:10;;;;;;;40.22;21.48;;;;;;;7.81;79.89;101220.50;5014033;28;20081;-79
2023/12/18 06:34:39;;;;;;;36.45;20.63;;;;;;;7.80;79.94;101224.91;5014279;28;20100;-80
2023/12/18 06:37:05;;;;;;;35.90;20.00;;;;;;;7.81;80.44;101221.38;5013739;28;20545;-80
2023/12/18 06:39:32;;;;;;;40.85;20.77;;;;;;;7.82;80.34;101219.66;5014090;28;20133;-79
2023/12/18 06:41:58;;;;;;;38.78;21.15;;;;;;;7.81;80.26;101231.88;5013889;28;20392;-83
2023/12/18 06:46:58;;;;;;;41.67;20.67;;;;;;;7.82;80.51;101246.69;5136939;22;20780;-75
2023/12/18 06:49:25;;;;;;;37.28;21.52;;;;;;;7.84;80.26;101240.59;5031984;28;20426;-73
2023/12/18 06:51:52;;;;;;;39.63;20.80;;;;;;;7.84;80.16;101237.97;5031700;28;20482;-75
2023/12/18 06:54:18;;;;;;;41.38;23.27;;;;;;;7.84;80.29;101243.22;5032029;28;20088;-76
2023/12/18 06:56:45;;;;;;;42.05;22.02;;;;;;;7.84;80.13;101246.69;5031699;28;20071;-74
2023/12/18 06:59:12;;;;;;;33.65;20.63;;;;;;;7.82;79.90;101244.06;5031726;28;20128;-76
2023/12/18 07:01:38;;;;;;;38.50;21.92;;;;;;;7.83;80.08;101255.44;5013932;28;20104;-73
2023/12/18 07:04:06;;;;;;;41.78;21.25;;;;;;;7.83;80.32;101252.81;5031665;28;20553;-72
2023/12/18 07:06:33;;;;;;;36.72;20.67;;;;;;;7.83;80.42;101247.56;5031793;28;20091;-75
2023/12/18 07:09:00;;;;;;;34.88;20.83;;;;;;;7.84;80.34;101257.16;5031944;28;20061;-72
2023/12/18 07:11:27;;;;;;;38.63;21.33;;;;;;;7.84;80.42;101248.44;5031366;28;20045;-74
2023/12/18 07:13:53;;;;;;;37.35;21.55;;;;;;;7.84;80.12;101249.28;5031526;28;20471;-76
2023/12/18 07:16:23;;;;;;;39.80;21.63;;;;;;;7.83;80.05;101258.06;5031267;28;20045;-73
2023/12/18 07:18:49;;;;;;;43.33;21.83;;;;;;;7.85;80.33;101244.94;5031593;28;20045;-76
2023/12/18 07:21:16;;;;;;;38.50;22.40;;;;;;;7.84;80.44;101249.28;5031554;28;20071;-74
2023/12/18 07:23:43;;;;;;;34.22;20.48;;;;;;;7.85;80.49;101255.41;5031633;28;20482;-76
2023/12/18 07:26:12;;;;;;;36.83;20.75;;;;;;;7.85;80.47;101253.63;5031224;28;20092;-76
2023/12/18 07:28:45;;;;;;;38.85;22.50;;;;;;;7.85;80.31;101251.00;5031365;28;20045;-74
2023/12/18 07:31:12;;;;;;;44.00;23.42;;;;;;;7.86;80.27;101257.13;5031513;28;20096;-76
2023/12/18 07:33:38;;;;;;;39.38;22.13;;;;;;;7.87;80.46;101259.72;5031194;28;20053;-75
2023/12/18 07:36:05;;;;;;;36.75;22.10;;;;;;;7.87;80.15;101257.09;5031389;28;20052;-76
2023/12/18 07:38:32;;;;;;;44.58;23.02;;;;;;;7.86;80.56;101252.75;5013350;28;20053;-72
2023/12/18 07:40:59;;;;;;;38.47;21.40;;;;;;;7.87;80.47;101257.09;5031097;28;20064;-76
2023/12/18 07:43:25;;;;;;;39.22;22.50;;;;;;;7.86;80.18;101260.63;5031244;28;20050;-75
2023/12/18 07:45:52;;;;;;;44.38;24.75;;;;;;;7.84;80.33;101257.16;4990581;28;1162522;-72
2023/12/18 07:48:21;;;;;;;43.45;22.90;;;;;;;7.85;80.15;101256.25;5031894;28;20107;-76
2023/12/18 07:50:48;;;;;;;38.30;22.00;;;;;;;7.84;80.35;101251.91;5032038;28;20053;-75
2023/12/18 07:53:15;;;;;;;39.65;21.75;;;;;;;7.84;80.67;101257.16;5031800;28;20465;-74
2023/12/18 07:55:42;;;;;;;37.40;22.92;;;;;;;7.83;80.51;101250.19;5031536;28;20099;-76
2023/12/18 07:58:08;;;;;;;42.58;23.90;;;;;;;7.83;80.49;101250.19;5031447;28;20465;-75
2023/12/18 08:00:35;;;;;;;42.45;23.50;;;;;;;7.82;80.17;101243.25;5031730;28;20045;-75
2023/12/18 08:03:03;;;;;;;43.45;23.67;;;;;;;7.83;80.23;101247.56;5031788;28;20053;-76
2023/12/18 08:05:30;;;;;;;44.33;22.80;;;;;;;7.83;80.25;101250.19;5031669;28;20060;-74
2023/12/18 08:07:56;;;;;;;36.80;23.60;;;;;;;7.82;80.24;101245.84;5031443;28;20088;-75
2023/12/18 08:10:23;;;;;;;46.88;24.25;;;;;;;7.82;80.43;101254.56;5031456;28;20045;-76
2023/12/18 08:12:50;;;;;;;37.28;23.02;;;;;;;7.83;80.56;101263.31;5031730;28;20505;-73
2023/12/18 08:15:16;;;;;;;39.83;22.85;;;;;;;7.83;80.54;101250.19;5031636;28;20054;-75
2023/12/18 08:17:43;;;;;;;38.40;22.60;;;;;;;7.82;80.57;101238.00;5031396;28;20101;-76
2023/12/18 08:20:11;;;;;;;37.90;22.65;;;;;;;7.82;80.36;101238.00;5031315;28;20445;-74
2023/12/18 08:22:37;;;;;;;45.80;25.15;;;;;;;7.82;80.54;101240.63;5031352;28;20049;-75
2023/12/18 08:25:05;;;;;;;37.20;22.90;;;;;;;7.81;80.47;101238.88;5031269;28;20052;-73
2023/12/18 08:27:33;;;;;;;43.78;24.35;;;;;;;7.81;80.43;101225.75;5031187;28;20069;-75
2023/12/18 08:30:03;;;;;;;44.00;24.80;;;;;;;7.79;80.42;101232.81;5013683;28;20140;-73
2023/12/18 08:32:30;;;;;;;39.90;22.65;;;;;;;7.79;80.46;101232.81;5013622;28;20045;-75
2023/12/18 08:35:00;;;;;;;42.05;23.98;;;;;;;7.79;80.33;101227.56;5031089;28;20406;-75
2023/12/18 08:37:27;;;;;;;39.85;24.15;;;;;;;7.77;80.34;101230.22;5030941;28;20052;-76
2023/12/18 08:39:54;;;;;;;42.95;23.60;;;;;;;7.78;80.49;101226.69;5030842;28;20052;-76
2023/12/18 08:42:22;;;;;;;45.47;24.60;;;;;;;7.76;80.74;101227.63;5031062;28;20045;-74
2023/12/18 08:44:49;;;;;;;43.38;24.77;;;;;;;7.77;80.46;101218.84;5031019;28;20057;-77
2023/12/18 08:47:18;;;;;;;41.92;23.90;;;;;;;7.77;80.81;101218.84;5030659;28;20398;-76
2023/12/18 08:49:44;;;;;;;46.65;24.08;;;;;;;7.77;80.80;101226.72;5030826;28;20046;-76
2023/12/18 08:52:11;;;;;;;43.60;21.92;;;;;;;7.78;80.92;101228.47;5030676;28;20057;-75
2023/12/18 08:54:37;;;;;;;38.50;22.17;;;;;;;7.80;80.97;101234.53;5030829;28;20107;-74
2023/12/18 08:57:04;;;;;;;42.15;24.60;;;;;;;7.77;80.83;101214.50;5030832;28;20088;-76
2023/12/18 08:59:30;;;;;;;46.35;24.55;;;;;;;7.79;80.58;101220.56;5030650;28;20383;-72
2023/12/18 09:01:57;;;;;;;41.30;24.10;;;;;;;7.80;80.78;101222.28;5030968;28;20103;-75
2023/12/18 09:04:24;;;;;;;42.28;23.63;;;;;;;7.80;80.77;101226.66;5030815;28;20068;-75
2023/12/18 09:06:50;;;;;;;60.67;25.48;;;;;;;7.79;80.81;101223.19;5030493;28;20067;-77
2023/12/18 09:09:17;;;;;;;42.63;24.38;;;;;;;7.79;80.88;101227.56;5034766;28;20132;-73
2023/12/18 09:11:44;;;;;;;46.30;26.35;;;;;;;7.79;80.57;101227.56;5034886;28;20506;-72
2023/12/18 09:14:11;;;;;;;47.00;25.60;;;;;;;7.78;80.49;101216.19;5034796;28;20112;-76
2023/12/18 09:16:39;;;;;;;41.15;24.08;;;;;;;7.79;80.60;101211.84;5034512;28;20149;-72
2023/12/18 09:19:05;;;;;;;47.83;23.50;;;;;;;7.80;80.92;101208.31;5034784;28;20103;-76
2023/12/18 09:21:32;;;;;;;41.40;23.65;;;;;;;7.81;80.98;101207.41;5034656;28;20080;-76
2023/12/18 09:23:58;;;;;;;43.20;24.77;;;;;;;7.81;81.22;101210.03;5034511;28;20453;-76
2023/12/18 09:26:25;;;;;;;41.72;24.00;;;;;;;7.81;80.77;101204.78;5034556;28;20085;-74
2023/12/18 09:28:52;;;;;;;44.78;24.95;;;;;;;7.82;80.71;101204.75;5034402;28;20528;-75
2023/12/18 09:31:18;;;;;;;51.65;25.65;;;;;;;7.82;81.04;101214.41;5034517;28;20057;-73
2023/12/18 09:33:45;;;;;;;41.15;23.73;;;;;;;7.83;80.83;101213.50;5034363;28;20050;-75
2023/12/18 09:36:12;;;;;;;47.03;24.88;;;;;;;7.83;80.66;101208.25;5034109;28;20553;-75
2023/12/18 09:38:39;;;;;;;48.90;25.45;;;;;;;7.82;81.19;101202.13;5034604;28;20520;-74
2023/12/18 09:41:07;;;;;;;41.10;23.58;;;;;;;7.85;80.98;101211.69;5034236;28;20045;-73
2023/12/18 09:43:34;;;;;;;45.10;26.02;;;;;;;7.87;81.16;101209.91;5034253;28;20090;-75
2023/12/18 09:46:02;;;;;;;52.25;24.60;;;;;;;7.86;81.20;101197.72;5034290;28;20053;-73
2023/12/18 09:48:29;;;;;;;47.42;23.08;;;;;;;7.88;80.71;101200.28;5033895;28;20050;-75
2023/12/18 09:50:56;;;;;;;49.00;25.25;;;;;;;7.87;81.14;101188.94;5034273;28;20103;-76
2023/12/18 09:53:23;;;;;;;47.75;24.60;;;;;;;7.87;81.14;101188.06;5034426;28;20064;-76
2023/12/18 09:55:51;;;;;;;48.42;26.35;;;;;;;7.87;81.00;101201.16;5016607;28;20080;-75
2023/12/18 09:58:19;;;;;;;44.42;24.67;;;;;;;7.87;81.03;101194.19;5033893;28;20053;-76
2023/12/18 10:00:47;;;;;;;48.22;23.60;;;;;;;7.87;81.18;101194.19;5033815;28;20091;-72
2023/12/18 10:03:16;;;;;;;43.55;24.58;;;;;;;7.89;81.31;101202.84;5033997;28;20064;-76
2023/12/18 10:05:43;;;;;;;47.20;24.88;;;;;;;7.89;81.28;101195.00;5034068;28;20057;-77
2023/12/18 10:08:11;;;;;;;45.75;22.58;;;;;;;7.91;81.28;101190.59;5033592;28;20057;-76
2023/12/18 10:10:38;;;;;;;44.05;23.02;;;;;;;7.92;81.27;101194.94;5033557;28;20059;-76
2023/12/18 10:13:06;;;;;;;43.33;23.77;;;;;;;7.92;81.13;101189.69;5033771;28;20387;-72
2023/12/18 10:15:35;;;;;;;41.63;23.13;;;;;;;7.93;81.06;101194.03;5033698;28;20141;-75
2023/12/18 10:18:03;;;;;;;48.90;26.80;;;;;;;7.93;80.95;101194.03;5033528;28;20056;-74
2023/12/18 10:20:30;;;;;;;39.05;23.33;;;;;;;7.92;81.26;101192.31;5033759;28;20092;-76
2023/12/18 10:22:59;;;;;;;40.20;23.00;;;;;;;7.91;81.12;101185.34;5033745;28;20053;-74
2023/12/18 10:25:26;;;;;;;45.20;24.83;;;;;;;7.93;81.57;101191.41;5033555;28;20057;-75
2023/12/18 10:27:56;;;;;;;45.63;24.40;;;;;;;7.93;81.57;101177.44;5033596;28;20049;-75
2023/12/18 10:30:28;;;;;;;47.15;24.95;;;;;;;7.93;81.52;101185.31;5033825;28;20191;-74
2023/12/18 10:33:03;;;;;;;42.97;22.80;;;;;;;7.94;81.36;101177.44;5033557;28;20049;-75
2023/12/18 10:35:31;;;;;;;46.40;24.33;;;;;;;7.97;81.35;101167.75;5033476;28;20053;-75
2023/12/18 10:38:00;;;;;;;44.10;24.00;;;;;;;7.97;81.44;101173.88;5033168;28;20104;-75
2023/12/18 10:40:28;;;;;;;50.60;25.52;;;;;;;8.00;81.56;101167.69;5032979;28;20053;-75
2023/12/18 10:43:00;;;;;;;54.35;25.75;;;;;;;7.98;81.41;101162.47;5015583;28;20045;-75
2023/12/18 10:45:28;;;;;;;53.40;24.50;;;;;;;8.02;81.69;101174.63;5032997;28;20473;-72
2023/12/18 10:47:58;;;;;;;49.30;25.63;;;;;;;8.04;81.79;101171.97;5032924;28;20486;-75
2023/12/18 10:50:26;;;;;;;58.72;27.20;;;;;;;8.06;81.46;101170.16;5032942;28;20081;-76
2023/12/18 10:52:56;;;;;;;47.38;25.60;;;;;;;8.06;81.60;101173.66;5015315;28;20049;-74
2023/12/18 10:55:23;;;;;;;56.95;27.45;;;;;;;8.07;81.84;101167.50;5033094;28;20064;-76
2023/12/18 10:57:52;;;;;;;50.33;27.60;;;;;;;8.10;81.67;101165.72;5032850;28;20103;-74
2023/12/18 11:00:19;;;;;;;49.08;28.02;;;;;;;8.10;81.60;101160.47;5015206;28;20049;-74
2023/12/18 11:02:54;;;;;;;53.80;27.55;;;;;;;8.12;81.89;101156.03;5033130;28;20142;-76
2023/12/18 11:05:23;;;;;;;49.85;28.52;;;;;;;8.12;81.66;101151.66;5015424;28;20053;-76
2023/12/18 11:07:51;;;;;;;58.47;29.20;;;;;;;8.14;81.62;101143.72;5032512;28;20089;-76
2023/12/18 11:10:18;;;;;;;52.42;29.30;;;;;;;8.14;81.74;101139.34;5032671;28;20421;-75
2023/12/18 11:12:49;;;;;;;53.05;28.50;;;;;;;8.16;81.59;101126.22;5032656;28;20334;-73
2023/12/18 11:15:42;;;;;;;50.40;27.60;;;;;;;8.13;81.36;101135.03;5032711;28;20045;-75
2023/12/18 11:18:17;;;;;;;62.55;29.98;;;;;;;8.18;81.16;101127.91;5032346;28;20049;-74